Time;durP1;ratioP1;P1;durP2;ratioP2;P2;SDS_P1;SDS_P2;PMS_P1;PMS_P2;Temp;Humidity;BMP_temperature;BMP_pressure;BME280_temperature;BME280_humidity;BME280_pressure;Samples;Min_cycle;Max_cycle;Signal;HPM_P1;HPM_P2
2023/07/17 00:00:13;;;;;;;19.70;18.50;;;17.80;99.90;;;;;;5019866;28;20465;-65
2023/07/17 00:02:41;;;;;;;22.17;20.67;;;17.50;99.90;;;;;;5023531;28;20837;-66
2023/07/17 00:05:11;;;;;;;20.90;19.50;;;17.30;99.90;;;;;;5020238;28;20808;-65
2023/07/17 00:07:38;;;;;;;19.93;18.63;;;17.00;99.90;;;;;;5025958;28;20555;-64
2023/07/17 00:10:07;;;;;;;19.70;18.50;;;16.80;99.90;;;;;;5026300;28;20968;-65
2023/07/17 00:12:39;;;;;;;18.90;17.80;;;16.60;99.90;;;;;;5030581;28;20465;-67
2023/07/17 00:15:10;;;;;;;18.70;17.60;;;16.60;99.90;;;;;;5009676;28;20503;-67
2023/07/17 00:17:38;;;;;;;18.60;17.60;;;16.50;99.90;;;;;;5020032;28;20461;-67
2023/07/17 00:20:17;;;;;;;18.40;17.40;;;16.40;99.90;;;;;;5017225;28;20469;-65
2023/07/17 00:22:46;;;;;;;17.60;16.70;;;16.30;99.90;;;;;;5023066;28;20834;-64
2023/07/17 00:25:13;;;;;;;18.07;17.10;;;16.30;99.90;;;;;;5019759;28;20471;-66
2023/07/17 00:27:40;;;;;;;16.90;16.10;;;16.30;99.90;;;;;;5024028;28;20469;-66
2023/07/17 00:30:07;;;;;;;17.10;16.27;;;16.30;99.90;;;;;;5024839;28;20955;-65
2023/07/17 00:32:34;;;;;;;20.00;19.07;;;16.30;99.90;;;;;;5020041;28;20472;-66
2023/07/17 00:35:01;;;;;;;26.50;25.33;;;16.20;99.90;;;;;;5020571;28;20465;-65
2023/07/17 00:37:27;;;;;;;20.30;19.40;;;16.20;99.90;;;;;;5023230;28;20480;-65
2023/07/17 00:39:55;;;;;;;16.47;15.77;;;16.00;99.90;;;;;;5017593;28;20468;-65
2023/07/17 00:42:22;;;;;;;15.40;14.70;;;16.00;99.90;;;;;;5026802;28;20469;-66
2023/07/17 00:44:50;;;;;;;14.73;14.13;;;16.20;99.90;;;;;;5027838;28;20499;-66
2023/07/17 00:47:17;;;;;;;14.20;13.60;;;16.20;99.90;;;;;;5018734;28;20468;-66
2023/07/17 00:49:47;;;;;;;14.00;13.40;;;16.20;99.90;;;;;;5015739;28;20461;-65
2023/07/17 00:52:15;;;;;;;14.17;13.57;;;16.20;99.90;;;;;;5024422;28;20460;-65
2023/07/17 00:54:43;;;;;;;13.27;12.67;;;16.10;99.90;;;;;;5038763;28;20951;-66
2023/07/17 00:57:15;;;;;;;16.60;14.57;;;16.10;99.90;;;;;;5021707;28;20555;-65
2023/07/17 00:59:42;;;;;;;14.17;13.57;;;16.10;99.90;;;;;;5020197;28;20472;-66
2023/07/17 01:02:09;;;;;;;14.37;13.77;;;16.00;99.90;;;;;;5024672;28;20519;-64
2023/07/17 01:04:36;;;;;;;19.40;18.00;;;16.00;99.90;;;;;;5023893;28;20492;-65
2023/07/17 01:07:03;;;;;;;17.50;16.60;;;15.90;99.90;;;;;;5023095;28;20967;-66
2023/07/17 01:09:31;;;;;;;17.87;16.90;;;15.80;99.90;;;;;;5029254;28;20857;-65
2023/07/17 01:11:58;;;;;;;16.97;16.07;;;15.70;99.90;;;;;;5016907;28;20468;-64
2023/07/17 01:14:26;;;;;;;15.87;15.07;;;15.60;99.90;;;;;;5023081;28;20478;-65
2023/07/17 01:16:52;;;;;;;17.40;16.50;;;15.50;99.90;;;;;;5020376;28;20546;-65
2023/07/17 01:19:19;;;;;;;16.10;15.30;;;15.50;99.90;;;;;;5027856;28;20460;-65
2023/07/17 01:21:51;;;;;;;16.20;15.40;;;15.40;99.90;;;;;;5023145;28;20585;-66
2023/07/17 01:24:19;;;;;;;16.33;15.53;;;15.40;99.90;;;;;;5018082;28;20496;-65
2023/07/17 01:26:46;;;;;;;16.60;15.80;;;15.40;99.90;;;;;;5028639;28;20467;-66
2023/07/17 01:29:13;;;;;;;16.87;16.07;;;15.40;99.90;;;;;;5023734;28;20468;-66
2023/07/17 01:31:41;;;;;;;16.27;15.47;;;15.50;99.90;;;;;;5027497;28;20452;-65
2023/07/17 01:34:08;;;;;;;15.50;14.80;;;15.50;99.90;;;;;;5016176;28;20473;-65
2023/07/17 01:36:34;;;;;;;15.07;14.37;;;15.50;99.90;;;;;;5028222;28;20820;-65
2023/07/17 01:39:01;;;;;;;15.87;15.17;;;15.60;99.90;;;;;;5027152;28;20812;-65
2023/07/17 01:41:29;;;;;;;14.87;14.27;;;15.50;99.90;;;;;;5027676;28;20457;-66
2023/07/17 01:43:56;;;;;;;14.90;14.10;;;15.50;99.90;;;;;;5020288;28;20495;-64
2023/07/17 01:46:23;;;;;;;13.77;13.27;;;15.50;99.90;;;;;;5024909;28;20483;-66
2023/07/17 01:48:49;;;;;;;13.83;13.33;;;15.50;99.90;;;;;;5027210;28;20817;-66
2023/07/17 01:51:17;;;;;;;14.43;13.83;;;15.40;99.90;;;;;;5017299;28;20563;-65
2023/07/17 01:53:44;;;;;;;14.60;14.00;;;15.40;99.90;;;;;;5023547;28;20515;-67
2023/07/17 01:56:10;;;;;;;14.17;13.57;;;15.40;99.90;;;;;;5022603;28;20500;-65
2023/07/17 01:58:38;;;;;;;14.87;14.17;;;15.40;99.90;;;;;;5024693;28;20472;-64
2023/07/17 02:01:06;;;;;;;13.73;13.20;;;15.30;99.90;;;;;;5023675;28;20456;-65
2023/07/17 02:03:36;;;;;;;13.67;13.17;;;15.30;99.90;;;;;;5023434;28;20477;-65
2023/07/17 02:06:03;;;;;;;13.33;12.73;;;15.30;99.90;;;;;;5021258;28;20828;-65
2023/07/17 02:08:29;;;;;;;13.50;12.90;;;15.30;99.90;;;;;;5023064;28;20460;-66
2023/07/17 02:10:56;;;;;;;12.70;12.20;;;15.30;99.90;;;;;;5027405;28;20518;-64
2023/07/17 02:13:23;;;;;;;13.57;13.07;;;15.20;99.90;;;;;;5026573;28;20573;-65
2023/07/17 02:15:51;;;;;;;13.60;13.10;;;15.20;99.90;;;;;;5020216;28;20489;-65
2023/07/17 02:18:18;;;;;;;14.67;14.07;;;15.20;99.90;;;;;;5025525;28;20488;-66
2023/07/17 02:20:45;;;;;;;14.60;14.00;;;15.30;99.90;;;;;;5026750;28;20496;-66
2023/07/17 02:23:11;;;;;;;13.97;13.37;;;15.30;99.90;;;;;;5015460;28;20929;-66
2023/07/17 02:25:38;;;;;;;14.27;13.67;;;15.30;99.90;;;;;;5026458;28;20608;-66
2023/07/17 02:28:04;;;;;;;14.33;13.73;;;15.30;99.90;;;;;;5023042;28;20504;-65
2023/07/17 02:30:30;;;;;;;14.47;13.87;;;15.20;99.90;;;;;;5027069;28;20972;-67
2023/07/17 02:32:59;;;;;;;14.20;13.60;;;15.20;99.90;;;;;;5026925;28;20194;-65
2023/07/17 02:35:25;;;;;;;14.40;13.80;;;15.10;99.90;;;;;;5024834;28;20857;-65
2023/07/17 02:37:52;;;;;;;14.63;13.93;;;15.10;99.90;;;;;;5020777;28;20864;-66
2023/07/17 02:40:19;;;;;;;14.33;13.73;;;15.10;99.90;;;;;;5019836;28;20763;-65
2023/07/17 02:42:46;;;;;;;14.57;13.97;;;15.10;99.90;;;;;;5026108;28;20460;-65
2023/07/17 02:45:14;;;;;;;14.10;13.50;;;15.00;99.90;;;;;;5023064;28;20495;-64
2023/07/17 02:47:41;;;;;;;14.33;13.73;;;15.00;99.90;;;;;;5027508;28;20902;-65
2023/07/17 02:50:10;;;;;;;14.30;13.70;;;15.00;99.90;;;;;;5026170;28;20468;-64
2023/07/17 02:52:37;;;;;;;14.00;13.40;;;15.00;99.90;;;;;;5015016;28;20492;-66
2023/07/17 02:55:05;;;;;;;13.10;12.60;;;15.00;99.90;;;;;;5026645;28;20461;-66
2023/07/17 02:57:34;;;;;;;13.30;12.80;;;14.90;99.90;;;;;;5026641;28;20555;-66
2023/07/17 03:00:08;;;;;;;13.90;13.30;;;14.80;99.90;;;;;;5023572;28;20527;-66
2023/07/17 03:02:34;;;;;;;14.07;13.47;;;14.70;99.90;;;;;;5012165;28;20473;-65
2023/07/17 03:05:04;;;;;;;13.97;13.37;;;14.70;99.90;;;;;;5024848;28;20531;-66
2023/07/17 03:07:33;;;;;;;14.00;13.40;;;14.70;99.90;;;;;;5019432;28;20460;-65
2023/07/17 03:09:59;;;;;;;14.30;13.70;;;14.60;99.90;;;;;;5022198;28;20552;-65
2023/07/17 03:12:26;;;;;;;13.90;13.30;;;14.50;99.90;;;;;;5017587;28;20465;-64
2023/07/17 03:14:54;;;;;;;14.47;13.87;;;14.40;99.90;;;;;;5026644;28;20457;-65
2023/07/17 03:17:21;;;;;;;14.47;13.87;;;14.40;99.90;;;;;;5026883;28;20463;-66
2023/07/17 03:19:48;;;;;;;14.53;13.93;;;14.40;99.90;;;;;;5024471;28;22506;-64
2023/07/17 03:22:14;;;;;;;15.37;14.67;;;14.30;99.90;;;;;;5025155;28;20680;-65
2023/07/17 03:24:42;;;;;;;13.87;13.27;;;14.30;99.90;;;;;;5025370;28;20492;-64
2023/07/17 03:27:09;;;;;;;14.60;13.90;;;14.30;99.90;;;;;;5025231;28;20948;-64
2023/07/17 03:29:37;;;;;;;13.40;12.90;;;14.30;99.90;;;;;;5021900;28;22284;-66
2023/07/17 03:32:06;;;;;;;14.33;13.73;;;14.30;99.90;;;;;;5026892;28;20461;-65
2023/07/17 03:34:33;;;;;;;14.23;13.60;;;14.20;99.90;;;;;;5022862;28;20471;-64
2023/07/17 03:37:00;;;;;;;14.00;13.40;;;14.20;99.90;;;;;;5023061;28;20514;-64
2023/07/17 03:39:26;;;;;;;13.87;13.27;;;14.20;99.90;;;;;;5032106;28;20452;-65
2023/07/17 03:41:55;;;;;;;13.60;13.00;;;14.10;99.90;;;;;;5023355;28;21002;-65
2023/07/17 03:44:22;;;;;;;14.60;14.00;;;14.10;99.90;;;;;;5028676;28;20920;-66
2023/07/17 03:46:50;;;;;;;13.50;12.90;;;14.10;99.90;;;;;;5022736;28;20472;-65
2023/07/17 03:49:17;;;;;;;13.50;13.00;;;14.10;99.90;;;;;;5028624;28;20460;-66
2023/07/17 03:51:43;;;;;;;13.43;12.93;;;14.00;99.90;;;;;;5028505;28;20499;-67
2023/07/17 03:54:11;;;;;;;14.13;13.53;;;14.00;99.90;;;;;;5015354;28;20469;-64
2023/07/17 03:56:39;;;;;;;14.40;13.80;;;14.00;99.90;;;;;;5022255;28;21548;-65
2023/07/17 03:59:07;;;;;;;13.97;13.37;;;14.10;99.90;;;;;;5028976;28;20449;-65
2023/07/17 04:01:37;;;;;;;15.40;14.70;;;14.00;99.90;;;;;;5026359;28;20457;-65
2023/07/17 04:04:04;;;;;;;14.67;13.73;;;14.10;99.90;;;;;;5024108;28;20488;-64
2023/07/17 04:06:31;;;;;;;13.20;12.70;;;14.00;99.90;;;;;;5023726;28;20522;-64
2023/07/17 04:08:58;;;;;;;13.10;12.60;;;14.10;99.90;;;;;;5029893;28;20832;-65
2023/07/17 04:11:25;;;;;;;13.87;13.27;;;14.10;99.90;;;;;;5026348;28;20611;-65
2023/07/17 04:13:52;;;;;;;46.90;14.20;;;14.10;99.90;;;;;;5028510;28;20465;-64
2023/07/17 04:16:21;;;;;;;13.30;12.80;;;14.20;99.90;;;;;;5018156;28;21112;-65
2023/07/17 04:18:49;;;;;;;13.97;13.37;;;14.20;99.90;;;;;;5029482;28;20443;-65
2023/07/17 04:21:15;;;;;;;12.93;12.43;;;14.20;99.90;;;;;;5032909;28;20464;-65
2023/07/17 04:23:42;;;;;;;14.20;13.60;;;14.20;99.90;;;;;;5025806;28;20469;-64
2023/07/17 04:26:09;;;;;;;14.50;13.90;;;14.20;99.90;;;;;;5029070;28;20496;-64
2023/07/17 04:28:36;;;;;;;14.67;14.07;;;14.20;99.90;;;;;;5013706;28;20461;-64
2023/07/17 04:31:03;;;;;;;14.37;13.77;;;14.30;99.90;;;;;;5022298;28;21031;-65
2023/07/17 04:33:32;;;;;;;14.80;14.10;;;14.30;99.90;;;;;;5025812;28;20567;-65
2023/07/17 04:35:59;;;;;;;14.83;14.13;;;14.30;99.90;;;;;;5025762;28;20471;-65
2023/07/17 04:38:26;;;;;;;14.03;13.43;;;14.30;99.90;;;;;;5022152;28;20519;-64
2023/07/17 04:40:53;;;;;;;14.67;14.07;;;14.40;99.90;;;;;;5019315;28;20474;-65
2023/07/17 04:43:20;;;;;;;16.03;14.77;;;14.40;99.90;;;;;;5022703;28;20468;-65
2023/07/17 04:45:47;;;;;;;13.57;13.00;;;14.40;99.90;;;;;;5022582;28;20584;-65
2023/07/17 04:48:14;;;;;;;14.23;13.63;;;14.40;99.90;;;;;;5022485;28;20469;-66
2023/07/17 04:50:45;;;;;;;13.73;13.13;;;14.40;99.90;;;;;;5021387;28;20477;-64
2023/07/17 04:53:12;;;;;;;13.27;12.77;;;14.50;99.90;;;;;;5022128;28;20962;-65
2023/07/17 04:55:38;;;;;;;12.43;11.93;;;14.50;99.90;;;;;;5030006;28;20515;-65
2023/07/17 04:58:05;;;;;;;12.37;11.87;;;14.50;99.90;;;;;;5022000;28;20878;-66
2023/07/17 05:00:33;;;;;;;12.80;12.20;;;14.60;99.90;;;;;;5027845;28;20518;-65
2023/07/17 05:03:00;;;;;;;15.17;14.27;;;14.60;99.90;;;;;;5015268;28;20493;-65
2023/07/17 05:05:26;;;;;;;12.37;11.67;;;14.70;99.90;;;;;;5025556;28;20567;-66
2023/07/17 05:07:54;;;;;;;12.27;11.70;;;14.70;99.90;;;;;;5023624;28;20472;-66
2023/07/17 05:10:21;;;;;;;11.70;11.30;;;14.70;99.90;;;;;;5025751;28;20461;-64
2023/07/17 05:12:48;;;;;;;13.10;12.37;;;14.80;99.90;;;;;;5023227;28;20476;-64
2023/07/17 05:15:15;;;;;;;12.43;11.43;;;14.80;99.90;;;;;;5019514;28;20481;-66
2023/07/17 05:17:42;;;;;;;11.57;11.17;;;14.80;99.90;;;;;;5020464;28;20465;-66
2023/07/17 05:20:09;;;;;;;12.23;11.60;;;14.90;99.90;;;;;;5025966;28;20774;-65
2023/07/17 05:22:36;;;;;;;11.33;10.93;;;14.90;99.90;;;;;;5023884;28;20511;-65
2023/07/17 05:25:05;;;;;;;11.03;10.63;;;15.00;99.90;;;;;;5014419;28;20488;-66
2023/07/17 05:27:32;;;;;;;12.17;11.67;;;15.00;99.90;;;;;;5021790;28;20971;-66
2023/07/17 05:29:59;;;;;;;10.83;10.43;;;15.00;99.90;;;;;;5017304;28;20562;-64
2023/07/17 05:32:26;;;;;;;11.37;10.97;;;15.10;99.90;;;;;;5017025;28;20831;-65
2023/07/17 05:34:53;;;;;;;11.63;10.97;;;15.10;99.90;;;;;;5019594;28;20483;-65
2023/07/17 05:37:20;;;;;;;12.10;11.50;;;15.20;99.90;;;;;;5022588;28;20544;-65
2023/07/17 05:39:47;;;;;;;10.27;9.83;;;15.30;99.90;;;;;;5019154;28;20472;-64
2023/07/17 05:42:15;;;;;;;7.60;7.40;;;15.30;99.90;;;;;;5014437;28;20465;-65
2023/07/17 05:44:42;;;;;;;8.17;7.87;;;15.40;99.90;;;;;;5021660;28;20491;-66
2023/07/17 05:47:10;;;;;;;10.60;9.63;;;15.40;99.90;;;;;;5018067;28;20457;-64
2023/07/17 05:49:37;;;;;;;8.67;8.37;;;15.50;99.90;;;;;;5023475;28;20459;-65
2023/07/17 05:52:04;;;;;;;9.33;8.83;;;15.60;99.90;;;;;;5023011;28;20488;-66
2023/07/17 05:54:31;;;;;;;8.10;7.70;;;15.70;99.90;;;;;;5021493;28;20484;-65
2023/07/17 05:56:58;;;;;;;9.03;8.47;;;15.70;99.90;;;;;;5021165;28;20587;-66
2023/07/17 05:59:26;;;;;;;7.53;7.23;;;15.80;99.90;;;;;;5013090;28;20477;-66
2023/07/17 06:01:52;;;;;;;8.00;7.70;;;15.80;99.90;;;;;;5024444;28;20937;-64
2023/07/17 06:04:19;;;;;;;8.93;8.10;;;15.90;99.90;;;;;;5023617;28;20830;-67
2023/07/17 06:06:46;;;;;;;9.50;8.97;;;15.90;99.90;;;;;;5021222;28;20516;-64
2023/07/17 06:09:13;;;;;;;8.00;7.50;;;16.10;99.90;;;;;;5019619;28;22796;-66
2023/07/17 06:11:41;;;;;;;8.50;8.00;;;16.10;99.90;;;;;;5021314;28;20456;-65
2023/07/17 06:14:08;;;;;;;8.07;7.57;;;16.20;99.90;;;;;;5023435;28;20476;-65
2023/07/17 06:16:37;;;;;;;9.53;7.10;;;16.30;99.90;;;;;;5019971;28;20740;-64
2023/07/17 06:19:05;;;;;;;7.70;7.40;;;16.30;99.90;;;;;;5023554;28;20525;-66
2023/07/17 06:21:31;;;;;;;7.83;7.53;;;16.40;99.90;;;;;;5022928;28;20871;-65
2023/07/17 06:23:58;;;;;;;7.80;7.50;;;16.50;99.90;;;;;;5024900;28;20469;-65
2023/07/17 06:26:25;;;;;;;8.40;8.10;;;16.60;99.90;;;;;;5021163;28;20568;-66
2023/07/17 06:29:07;;;;;;;9.83;9.30;;;16.70;99.90;;;;;;5018449;28;20460;-65
2023/07/17 06:31:37;;;;;;;10.23;9.47;;;16.80;99.90;;;;;;5024315;28;20464;-65
2023/07/17 06:34:03;;;;;;;10.43;9.83;;;16.90;99.90;;;;;;5010949;28;20502;-66
2023/07/17 06:36:31;;;;;;;12.37;11.67;;;17.00;99.90;;;;;;5024437;28;20468;-65
2023/07/17 06:38:59;;;;;;;12.20;11.50;;;17.00;99.90;;;;;;5026654;28;20467;-66
2023/07/17 06:41:26;;;;;;;11.43;10.93;;;17.10;99.90;;;;;;5023694;28;20464;-65
2023/07/17 06:43:52;;;;;;;10.77;10.37;;;17.10;99.90;;;;;;5020207;28;20575;-65
2023/07/17 06:46:19;;;;;;;11.80;11.20;;;17.20;99.90;;;;;;5026077;28;20534;-66
2023/07/17 06:48:48;;;;;;;11.73;11.23;;;17.40;99.90;;;;;;5018083;28;20536;-65
2023/07/17 06:51:15;;;;;;;12.53;11.90;;;17.40;99.90;;;;;;5014264;28;20472;-66
2023/07/17 06:53:42;;;;;;;12.33;11.83;;;17.50;99.90;;;;;;5003917;28;20495;-66
2023/07/17 06:56:09;;;;;;;12.80;12.23;;;17.50;99.90;;;;;;5018723;28;20488;-64
2023/07/17 06:58:35;;;;;;;13.27;12.40;;;17.70;99.90;;;;;;5016759;28;20457;-66
2023/07/17 07:01:03;;;;;;;13.87;13.17;;;17.70;99.90;;;;;;5018617;28;20468;-65
2023/07/17 07:03:30;;;;;;;12.83;12.33;;;17.80;99.90;;;;;;5023762;28;20863;-65
2023/07/17 07:06:00;;;;;;;12.77;12.27;;;17.90;99.90;;;;;;5029101;28;21153;-67
2023/07/17 07:08:29;;;;;;;13.13;12.57;;;18.00;99.90;;;;;;5016396;28;20468;-66
2023/07/17 07:10:57;;;;;;;15.33;14.53;;;18.10;99.90;;;;;;5025424;28;20448;-66
2023/07/17 07:13:25;;;;;;;14.07;13.47;;;18.20;99.90;;;;;;5025251;28;20464;-65
2023/07/17 07:15:53;;;;;;;14.77;14.07;;;18.30;99.90;;;;;;5027499;28;20484;-65
2023/07/17 07:18:20;;;;;;;13.87;13.27;;;18.40;99.90;;;;;;5022273;28;22328;-65
2023/07/17 07:20:48;;;;;;;15.73;14.60;;;18.40;99.90;;;;;;5021439;28;20471;-68
2023/07/17 07:23:16;;;;;;;15.30;14.60;;;18.50;99.90;;;;;;5025520;28;20492;-66
2023/07/17 07:25:43;;;;;;;15.23;14.23;;;18.60;99.90;;;;;;5023128;28;20515;-66
2023/07/17 07:28:11;;;;;;;15.30;14.60;;;19.00;99.90;;;;;;5025337;28;20460;-66
2023/07/17 07:30:38;;;;;;;16.00;15.10;;;19.20;99.90;;;;;;5030213;28;20484;-65
2023/07/17 07:33:05;;;;;;;18.50;15.73;;;19.20;99.90;;;;;;5016484;28;20565;-66
2023/07/17 07:35:32;;;;;;;17.33;16.20;;;19.20;99.90;;;;;;5008363;28;21085;-67
2023/07/17 07:37:59;;;;;;;17.33;16.10;;;19.10;99.90;;;;;;5016886;28;20951;-66
2023/07/17 07:40:27;;;;;;;15.50;14.80;;;18.90;99.90;;;;;;5016683;28;20583;-67
2023/07/17 07:42:54;;;;;;;16.50;15.70;;;18.90;99.90;;;;;;5012018;28;20875;-65
2023/07/17 07:45:21;;;;;;;15.60;14.77;;;19.00;99.90;;;;;;4979391;28;22083;-66
2023/07/17 07:47:48;;;;;;;16.90;15.80;;;19.00;99.90;;;;;;5018490;28;20501;-66
2023/07/17 07:50:14;;;;;;;16.77;15.67;;;19.10;99.90;;;;;;5013497;28;20470;-66
2023/07/17 07:52:42;;;;;;;16.83;15.73;;;19.00;99.90;;;;;;5013691;28;20894;-67
2023/07/17 07:55:09;;;;;;;15.63;14.93;;;19.10;99.90;;;;;;5021748;28;20461;-67
2023/07/17 07:57:37;;;;;;;15.80;15.00;;;19.20;99.90;;;;;;5015009;28;20527;-67
2023/07/17 08:00:05;;;;;;;15.93;15.13;;;19.30;99.90;;;;;;5023802;28;20985;-66
2023/07/17 08:02:32;;;;;;;16.70;15.70;;;19.60;99.90;;;;;;5022381;28;20469;-67
2023/07/17 08:05:00;;;;;;;16.10;15.27;;;19.80;99.90;;;;;;5021165;28;20472;-67
2023/07/17 08:07:27;;;;;;;17.53;16.33;;;19.90;99.90;;;;;;5013613;28;21017;-68
2023/07/17 08:09:54;;;;;;;16.67;15.70;;;19.90;99.90;;;;;;5018768;28;20461;-66
2023/07/17 08:12:20;;;;;;;17.90;16.90;;;20.00;99.90;;;;;;5018790;28;20457;-66
2023/07/17 08:14:51;;;;;;;15.43;14.73;;;20.10;99.90;;;;;;5018688;28;20477;-65
2023/07/17 08:17:17;;;;;;;16.73;15.63;;;20.30;99.90;;;;;;5018001;28;20464;-67
2023/07/17 08:19:44;;;;;;;18.20;17.10;;;20.80;99.90;;;;;;5018976;28;20888;-66
2023/07/17 08:22:12;;;;;;;15.50;14.80;;;20.90;99.90;;;;;;5026021;28;20989;-65
2023/07/17 08:24:39;;;;;;;17.03;16.10;;;21.20;99.90;;;;;;5023902;28;21083;-66
2023/07/17 08:27:07;;;;;;;17.40;16.03;;;21.40;99.90;;;;;;5020026;28;20492;-67
2023/07/17 08:29:34;;;;;;;15.50;14.80;;;21.60;99.90;;;;;;5026378;28;20930;-67
2023/07/17 08:32:02;;;;;;;15.50;14.80;;;21.50;99.90;;;;;;5021670;28;20472;-66
2023/07/17 08:34:29;;;;;;;17.70;15.97;;;21.60;99.90;;;;;;5023679;28;20994;-65
2023/07/17 08:36:56;;;;;;;17.00;15.83;;;21.90;99.90;;;;;;5016328;28;20469;-66
2023/07/17 08:39:23;;;;;;;18.27;17.27;;;22.20;99.90;;;;;;5023543;28;20779;-65
2023/07/17 08:41:50;;;;;;;16.60;15.80;;;22.50;99.90;;;;;;5022292;28;20958;-67
2023/07/17 08:44:17;;;;;;;18.27;16.80;;;22.80;99.90;;;;;;5022049;28;20452;-66
2023/07/17 08:46:46;;;;;;;18.83;17.83;;;23.20;99.90;;;;;;5025002;28;20472;-67
2023/07/17 08:49:16;;;;;;;16.47;15.67;;;23.40;99.90;;;;;;5024062;28;20456;-68
2023/07/17 08:51:45;;;;;;;16.00;15.30;;;23.40;99.90;;;;;;5020838;28;20544;-67
2023/07/17 08:54:13;;;;;;;17.50;16.30;;;23.60;99.90;;;;;;5016532;28;20469;-67
2023/07/17 08:56:42;;;;;;;17.90;16.70;;;23.40;99.90;;;;;;5024577;28;20491;-67
2023/07/17 08:59:10;;;;;;;17.43;16.27;;;23.40;99.90;;;;;;5024411;28;20480;-67
2023/07/17 09:01:38;;;;;;;17.67;16.67;;;23.30;99.90;;;;;;5025430;28;21554;-67
2023/07/17 09:04:05;;;;;;;18.47;17.47;;;23.90;99.90;;;;;;5021881;28;20461;-67
2023/07/17 09:06:34;;;;;;;17.23;16.23;;;23.40;99.90;;;;;;5026097;28;21010;-67
2023/07/17 09:09:02;;;;;;;17.17;16.30;;;23.20;99.90;;;;;;5012522;28;20465;-67
2023/07/17 09:11:29;;;;;;;15.90;15.20;;;23.30;99.90;;;;;;5017798;28;20991;-66
2023/07/17 09:13:57;;;;;;;17.03;16.00;;;23.20;99.90;;;;;;5025157;28;20460;-67
2023/07/17 09:16:25;;;;;;;18.10;17.00;;;23.80;99.90;;;;;;5020489;28;21037;-67
2023/07/17 09:18:54;;;;;;;17.43;16.43;;;24.00;99.90;;;;;;5024964;28;20759;-67
2023/07/17 09:21:22;;;;;;;16.73;15.93;;;23.50;99.90;;;;;;5026327;28;20464;-66
2023/07/17 09:23:53;;;;;;;16.53;15.77;;;23.10;99.90;;;;;;5025821;28;20457;-68
2023/07/17 09:26:22;;;;;;;16.77;15.97;;;22.90;99.90;;;;;;5020946;28;20496;-67
2023/07/17 09:28:50;;;;;;;16.93;16.13;;;22.80;99.90;;;;;;5014457;28;20469;-66
2023/07/17 09:31:24;;;;;;;18.77;17.37;;;23.10;99.90;;;;;;5025941;28;20456;-67
2023/07/17 09:33:51;;;;;;;16.80;15.93;;;23.40;99.90;;;;;;5019413;28;20456;-67
2023/07/17 09:36:18;;;;;;;17.73;16.73;;;23.20;99.90;;;;;;5019748;28;20492;-66
2023/07/17 09:38:45;;;;;;;18.17;16.93;;;23.20;99.90;;;;;;5017151;28;20523;-65
2023/07/17 09:41:23;;;;;;;17.03;16.17;;;23.40;99.90;;;;;;5024551;28;20468;-67
2023/07/17 09:43:54;;;;;;;16.47;15.53;;;23.10;99.90;;;;;;5019236;28;20464;-67
2023/07/17 09:46:21;;;;;;;17.80;16.73;;;23.90;99.90;;;;;;5022562;28;21025;-67
2023/07/17 09:48:50;;;;;;;16.50;15.70;;;24.90;99.90;;;;;;5023777;28;20950;-67
2023/07/17 09:51:20;;;;;;;17.00;16.10;;;25.00;99.90;;;;;;5020913;28;20498;-66
2023/07/17 09:53:47;;;;;;;18.10;16.70;;;25.10;99.90;;;;;;5019346;28;21010;-66
2023/07/17 09:56:16;;;;;;;16.80;15.90;;;25.00;99.90;;;;;;5013873;28;20503;-66
2023/07/17 09:58:47;;;;;;;17.30;16.20;;;25.00;99.90;;;;;;5021390;28;20552;-65
2023/07/17 10:01:17;;;;;;;17.00;16.10;;;25.90;99.90;;;;;;5021744;28;20759;-65
2023/07/17 10:03:47;;;;;;;18.90;17.47;;;26.40;99.90;;;;;;5019490;28;20556;-66
2023/07/17 10:06:15;;;;;;;19.10;18.13;;;26.00;99.90;;;;;;5020512;28;21113;-66
2023/07/17 10:08:46;;;;;;;17.20;16.07;;;25.80;99.90;;;;;;5024157;28;20849;-66
2023/07/17 10:11:15;;;;;;;36.20;34.30;;;25.50;99.90;;;;;;5020659;28;20551;-67
2023/07/17 10:13:43;;;;;;;19.03;18.30;;;25.40;99.90;;;;;;5015391;28;21014;-66
2023/07/17 10:16:14;;;;;;;14.30;13.90;;;25.70;99.90;;;;;;5020616;28;20507;-67
2023/07/17 10:18:49;;;;;;;14.10;13.70;;;25.90;99.90;;;;;;5020382;28;20986;-67
2023/07/17 10:21:17;;;;;;;14.10;13.70;;;26.10;99.90;;;;;;5023592;28;20456;-66
2023/07/17 10:23:48;;;;;;;14.27;13.87;;;26.00;99.90;;;;;;5015558;28;20464;-67
2023/07/17 10:26:17;;;;;;;14.90;14.40;;;26.20;99.90;;;;;;5020734;28;21051;-67
2023/07/17 10:28:48;;;;;;;14.90;14.40;;;26.00;99.90;;;;;;5016562;28;20544;-67
2023/07/17 10:31:20;;;;;;;15.20;14.70;;;25.30;99.90;;;;;;5023160;28;20474;-66
2023/07/17 10:33:50;;;;;;;15.00;14.50;;;24.70;99.90;;;;;;5018011;28;20468;-67
2023/07/17 10:36:17;;;;;;;18.77;17.80;;;24.10;99.90;;;;;;5027127;28;20456;-68
2023/07/17 10:38:50;;;;;;;15.20;14.70;;;24.30;99.90;;;;;;5024298;28;20467;-67
2023/07/17 10:41:26;;;;;;;14.90;14.40;;;24.60;99.90;;;;;;5019682;28;20464;-68
2023/07/17 10:43:55;;;;;;;14.67;14.17;;;24.90;99.90;;;;;;5018707;28;20958;-67
2023/07/17 10:46:28;;;;;;;14.90;14.40;;;24.80;99.90;;;;;;5023700;28;20492;-67
2023/07/17 10:49:04;;;;;;;15.03;14.53;;;24.50;99.90;;;;;;5027234;28;20998;-67
2023/07/17 10:51:31;;;;;;;14.70;14.20;;;24.10;99.90;;;;;;5021866;28;20935;-66
2023/07/17 10:53:58;;;;;;;14.37;13.97;;;23.40;99.90;;;;;;5024028;28;20824;-68
2023/07/17 10:56:25;;;;;;;14.77;14.27;;;23.20;99.90;;;;;;5028368;28;21072;-67
2023/07/17 10:58:53;;;;;;;14.53;14.03;;;23.70;99.90;;;;;;5020940;28;20475;-67
2023/07/17 11:01:20;;;;;;;14.90;14.40;;;23.90;99.90;;;;;;5021660;28;20964;-67
2023/07/17 11:03:49;;;;;;;16.50;15.90;;;23.60;99.90;;;;;;5029126;28;20476;-68
2023/07/17 11:06:17;;;;;;;15.20;14.70;;;23.10;99.90;;;;;;5029260;28;20465;-67
2023/07/17 11:08:48;;;;;;;15.50;15.00;;;23.00;99.90;;;;;;5027458;28;20970;-67
2023/07/17 11:11:14;;;;;;;15.20;14.70;;;23.00;99.90;;;;;;5016848;28;20471;-67
2023/07/17 11:13:44;;;;;;;14.80;14.30;;;23.10;99.90;;;;;;5021547;28;20463;-67
2023/07/17 11:16:11;;;;;;;14.77;14.27;;;23.00;99.90;;;;;;5026200;28;21002;-68
2023/07/17 11:18:46;;;;;;;14.73;14.23;;;23.10;99.90;;;;;;5024181;28;20486;-68
2023/07/17 11:21:16;;;;;;;14.80;14.30;;;23.30;99.90;;;;;;5026383;28;20814;-67
2023/07/17 11:23:49;;;;;;;14.70;14.20;;;23.50;99.90;;;;;;5020938;28;20461;-67
2023/07/17 11:26:18;;;;;;;15.00;14.50;;;23.30;99.90;;;;;;5018582;28;20526;-67
2023/07/17 11:28:48;;;;;;;15.40;14.90;;;23.80;99.90;;;;;;5016378;28;20995;-68
2023/07/17 11:31:18;;;;;;;14.73;14.23;;;24.40;99.90;;;;;;5027686;28;20488;-67
2023/07/17 11:33:51;;;;;;;15.13;14.63;;;24.80;99.90;;;;;;5024078;28;20599;-67
2023/07/17 11:36:20;;;;;;;14.60;14.10;;;25.10;99.90;;;;;;5022419;28;20495;-68
2023/07/17 11:38:47;;;;;;;15.10;14.60;;;25.60;99.90;;;;;;5026658;28;20970;-67
2023/07/17 11:41:14;;;;;;;14.70;14.20;;;25.90;99.90;;;;;;5022908;28;20460;-67
2023/07/17 11:43:41;;;;;;;14.83;14.33;;;25.70;99.90;;;;;;5017447;28;20578;-68
2023/07/17 11:46:11;;;;;;;14.80;14.30;;;25.70;99.90;;;;;;5026631;28;20468;-67
2023/07/17 11:48:43;;;;;;;14.80;14.30;;;25.50;99.90;;;;;;5027754;28;20488;-68
2023/07/17 11:51:10;;;;;;;15.40;14.90;;;24.80;99.90;;;;;;5025185;28;20479;-67
2023/07/17 11:53:39;;;;;;;15.10;14.60;;;24.90;99.90;;;;;;5027968;28;20483;-67
2023/07/17 11:56:07;;;;;;;15.00;14.50;;;25.30;99.90;;;;;;5021094;28;20485;-67
2023/07/17 11:58:35;;;;;;;15.10;14.60;;;25.90;99.90;;;;;;5027883;28;20952;-67
2023/07/17 12:01:02;;;;;;;13.60;13.20;;;25.90;99.90;;;;;;5021834;28;20556;-67
2023/07/17 12:03:29;;;;;;;14.03;13.63;;;26.10;99.90;;;;;;5027593;28;20461;-69
2023/07/17 12:05:56;;;;;;;14.30;13.90;;;26.30;99.90;;;;;;5028193;28;20874;-67
2023/07/17 12:08:23;;;;;;;14.30;13.90;;;26.00;99.90;;;;;;5022306;28;20484;-67
2023/07/17 12:10:51;;;;;;;14.10;13.70;;;25.80;99.90;;;;;;5020371;28;20468;-67
2023/07/17 12:13:18;;;;;;;14.47;14.07;;;25.60;99.90;;;;;;5027275;28;20474;-66
2023/07/17 12:15:45;;;;;;;13.40;13.00;;;25.60;99.90;;;;;;5027238;28;20485;-68
2023/07/17 12:18:12;;;;;;;13.50;13.10;;;25.40;99.90;;;;;;5021215;28;20465;-67
2023/07/17 12:20:39;;;;;;;13.60;13.20;;;25.60;99.90;;;;;;5026710;28;20464;-66
2023/07/17 12:23:06;;;;;;;14.20;13.80;;;25.50;99.90;;;;;;5026152;28;20846;-67
2023/07/17 12:25:33;;;;;;;14.10;13.70;;;25.10;99.90;;;;;;5023868;28;21026;-66
2023/07/17 12:28:02;;;;;;;13.00;12.60;;;24.90;99.90;;;;;;5024124;28;20492;-67
2023/07/17 12:30:29;;;;;;;12.90;12.60;;;24.70;99.90;;;;;;5016688;28;20496;-66